Terminal Aerodrome Forecast
Issued by NWS Burlington, VT

Home | Current Version | Previous Version | Text Only | Print | Product List | Glossary On
Versions: 1 2 3 4 5 6 7 8 9 10 11 12 13
000
FTUS41 KBTV 071125
TAFBTV
TAF
KBTV 071125Z 0712/0812 18013G19KT P6SM BKN070
     FM071600 18016G22KT P6SM SHRA BKN070
     FM072200 19013KT P6SM -SHRA BKN080
     FM080100 18009KT P6SM BKN100
     FM080500 19009KT 6SM -SHRA BR OVC090
     FM080900 21006KT 6SM BR OVC035=

USA.gov is the U.S. government's official web portal to all federal, state and local government web resources and services.